Airfield :
LOGIN :

Register | Disclaimer

   EN    FR    IT 

 










Legend :    VFR   Marginal VFR   IFR   Intensive IFR   Very Intensive IFR
Visi :
Ceiling :
>= 8 km
>= 3000ft
5 to 8 km
1000 to 3000 ft
1500m to 5 km
500 to 1000 ft
800 to 1500m
200 to 500 ft
< 800m
< 200 ft
Symbols :   Thunderstorms  Fog  Heavy snow  Heavy precipitations  Wind > 20 kt
SIGMETs :     Misc.  Thunderstorms  Icing  Turbulence  Mountain Waves  Volcanic Ashes






- Airport Elevation : -11 ft
- IATA code : AMS


EHAM - Amsterdam Schiphol

CURRENT METAR :
  • 081125Z 06006KT 020V100 CAVOK 20/10 Q1024 NOSIG

EXPIRED METARs :
  • 081055Z 05005KT 360V090 CAVOK 20/10 Q1024 NOSIG
  • 081025Z 05005KT 010V100 CAVOK 20/10 Q1025 NOSIG
  • 080955Z VRB02KT CAVOK 19/10 Q1025 NOSIG
  • 080925Z VRB01KT CAVOK 18/10 Q1025 NOSIG
  • 080855Z VRB01KT CAVOK 17/09 Q1025 NOSIG

TAF TAF EHAM
Valid from the 08 at 12:00 until the 09 at 18:00 UTC


081055Z 0812/0918 08006KT CAVOK
BECMG 0912/0915 04010KT



MET'MAP, your aeronautical weather chart ! - Copyright ORBIFLY December 2007 - Disclaimer

ORBIFLY MET'MAP TEAM :

Programming & Development : Alexandra Zaïnal
Concept & original design : Baudouin d'Aumeries
Assistance for programming : Marc-Olivier Méhu
Technical & hardware support : Manuel Goepfert

Contact : metmap@orbifly.com




SOURCES & CREDITS :

   NOAA